createdAt,value
2019-03-17T00:03:01.865Z,2.30
2019-03-17T00:08:05.571Z,2.67
2019-03-17T00:13:09.157Z,2.80
2019-03-17T00:18:12.633Z,1.87
2019-03-17T00:23:16.455Z,2.25
2019-03-17T00:28:20.023Z,1.50
2019-03-17T00:33:24.371Z,1.87
2019-03-17T00:38:28.046Z,1.70
2019-03-17T00:43:31.836Z,1.90
2019-03-17T00:48:35.457Z,2.27
2019-03-17T00:53:38.962Z,1.80
2019-03-17T00:58:42.914Z,2.43
2019-03-17T01:03:46.563Z,1.77
2019-03-17T01:08:50.411Z,1.70
2019-03-17T01:13:53.983Z,1.53
2019-03-17T01:18:57.395Z,1.80
2019-03-17T01:24:01.000Z,1.53
2019-03-17T01:29:05.564Z,1.53
2019-03-17T01:34:09.136Z,2.60
2019-03-17T01:39:13.123Z,2.50
2019-03-17T01:44:16.630Z,2.03
2019-03-17T01:49:20.258Z,2.27
2019-03-17T01:54:23.737Z,2.10
2019-03-17T01:59:27.194Z,1.87
2019-03-17T02:04:31.115Z,2.70
2019-03-17T02:09:34.616Z,2.23
2019-03-17T02:14:38.301Z,1.70
2019-03-17T02:19:41.979Z,1.70
2019-03-17T02:24:45.843Z,3.00
2019-03-17T02:29:49.524Z,2.17
2019-03-17T02:34:53.051Z,1.43
2019-03-17T02:39:56.705Z,1.83
2019-03-17T02:45:00.448Z,2.37
2019-03-17T02:50:04.197Z,2.10
2019-03-17T02:55:07.856Z,1.80
2019-03-17T03:00:11.743Z,1.33
2019-03-17T03:05:15.463Z,1.80
2019-03-17T03:10:19.105Z,2.20
2019-03-17T03:15:22.566Z,2.55
2019-03-17T03:20:26.008Z,1.97
2019-03-17T03:25:29.421Z,2.13
2019-03-17T03:30:32.962Z,2.50
2019-03-17T03:35:36.333Z,2.47
2019-03-17T03:40:39.742Z,2.37
2019-03-17T03:45:43.286Z,1.77
2019-03-17T03:50:46.693Z,2.17
2019-03-17T03:55:50.205Z,1.83
2019-03-17T04:00:53.689Z,2.27
2019-03-17T04:05:57.111Z,2.57
2019-03-17T04:11:00.570Z,2.43
2019-03-17T04:16:04.037Z,1.93
2019-03-17T04:21:07.493Z,1.80
2019-03-17T04:26:10.926Z,2.23
2019-03-17T04:31:14.904Z,1.97
2019-03-17T04:36:17.945Z,2.90
2019-03-17T04:41:21.389Z,2.50
2019-03-17T04:46:24.840Z,2.17
2019-03-17T04:51:28.286Z,1.77
2019-03-17T04:56:31.742Z,2.50
2019-03-17T05:01:35.162Z,1.33
2019-03-17T05:06:38.692Z,2.37
2019-03-17T05:11:42.177Z,2.57
2019-03-17T05:16:45.590Z,2.10
2019-03-17T05:21:49.136Z,2.33
2019-03-17T05:26:52.551Z,1.90
2019-03-17T05:31:55.977Z,2.10
2019-03-17T05:37:05.933Z,2.10
2019-03-17T05:42:02.897Z,3.27
2019-03-17T05:47:06.384Z,2.80
2019-03-17T05:52:09.912Z,3.30
2019-03-17T05:57:13.390Z,2.63
2019-03-17T06:02:16.803Z,3.60
2019-03-17T06:07:20.321Z,2.70
2019-03-17T06:12:23.953Z,2.15
2019-03-17T06:17:27.358Z,2.10
2019-03-17T06:22:30.967Z,2.80
2019-03-17T06:27:34.386Z,3.57
2019-03-17T06:32:37.918Z,5.40
2019-03-17T06:37:41.406Z,2.97
2019-03-17T06:42:44.904Z,4.77
2019-03-17T06:47:48.408Z,4.33
2019-03-17T06:52:53.549Z,3.03
2019-03-17T06:57:55.366Z,3.37
2019-03-17T07:02:58.840Z,3.67
2019-03-17T07:08:02.318Z,2.47
2019-03-17T07:13:05.794Z,2.63
2019-03-17T07:18:09.254Z,3.97
2019-03-17T07:23:12.667Z,3.13
2019-03-17T07:28:16.135Z,2.73
2019-03-17T07:33:19.568Z,3.70
2019-03-17T07:38:23.032Z,2.47
2019-03-17T07:43:26.651Z,3.20
2019-03-17T07:48:30.043Z,2.03
2019-03-17T07:53:33.557Z,1.67
2019-03-17T07:58:37.876Z,1.73
2019-03-17T08:03:41.385Z,1.60
2019-03-17T08:08:44.926Z,1.40
2019-03-17T08:13:48.428Z,1.43
2019-03-17T08:18:51.890Z,1.60
2019-03-17T08:23:55.394Z,1.30
2019-03-17T08:28:58.890Z,0.97
2019-03-17T08:34:03.432Z,1.20
2019-03-17T08:39:08.047Z,1.30
2019-03-17T08:44:11.728Z,1.40
2019-03-17T08:49:15.356Z,1.30
2019-03-17T08:54:18.956Z,1.30
2019-03-17T08:59:24.689Z,0.90
2019-03-17T09:04:28.176Z,1.20
2019-03-17T09:09:31.691Z,1.50
2019-03-17T09:14:36.517Z,1.23
2019-03-17T09:19:40.152Z,1.67
2019-03-17T09:24:44.209Z,1.47
2019-03-17T09:29:47.779Z,1.43
2019-03-17T09:34:51.513Z,1.17
2019-03-17T09:39:54.999Z,1.13
2019-03-17T09:44:58.637Z,1.70
2019-03-17T09:50:02.091Z,1.03
2019-03-17T09:55:05.708Z,1.03
2019-03-17T10:00:10.695Z,1.53
2019-03-17T10:05:14.121Z,1.73
2019-03-17T10:10:17.607Z,1.30
2019-03-17T10:15:21.147Z,0.60
2019-03-17T10:20:25.672Z,0.77
2019-03-17T10:25:29.237Z,0.87
2019-03-17T10:30:33.692Z,0.70
2019-03-17T10:35:37.202Z,0.30
2019-03-17T10:40:40.792Z,0.70
2019-03-17T10:45:44.312Z,0.60
2019-03-17T10:50:49.895Z,0.60
2019-03-17T10:55:51.259Z,0.60
2019-03-17T11:00:54.938Z,0.77
2019-03-17T11:05:58.409Z,0.33
2019-03-17T11:11:01.885Z,0.70
2019-03-17T11:16:05.383Z,0.97
2019-03-17T11:21:08.968Z,0.70
2019-03-17T11:26:12.555Z,0.90
2019-03-17T11:31:16.096Z,3.33
2019-03-17T11:36:19.832Z,0.53
2019-03-17T11:41:23.357Z,0.90
2019-03-17T11:46:27.022Z,0.70
2019-03-17T11:51:31.579Z,1.00
2019-03-17T11:56:35.120Z,1.10
2019-03-17T12:01:38.738Z,1.03
2019-03-17T12:06:42.462Z,0.70
2019-03-17T12:11:46.146Z,1.00
2019-03-17T12:16:49.672Z,1.23
2019-03-17T12:21:53.344Z,0.93
2019-03-17T12:26:56.872Z,0.90
2019-03-17T12:32:01.470Z,0.83
2019-03-17T12:37:05.051Z,0.60
2019-03-17T12:42:08.658Z,0.70
2019-03-17T12:47:12.274Z,0.77
2019-03-17T12:52:15.806Z,0.95
2019-03-17T12:57:19.343Z,1.23
2019-03-17T13:02:22.977Z,1.00
2019-03-17T13:07:26.539Z,1.10
2019-03-17T13:12:30.168Z,0.70
2019-03-17T13:17:33.738Z,0.83
2019-03-17T13:22:40.048Z,1.00
2019-03-17T13:27:43.659Z,1.00
2019-03-17T13:32:47.219Z,0.73
2019-03-17T13:37:50.739Z,1.10
2019-03-17T13:42:55.409Z,1.00
2019-03-17T13:47:58.969Z,1.07
2019-03-17T13:53:02.473Z,0.90
2019-03-17T13:58:06.249Z,1.03
2019-03-17T14:03:09.857Z,0.77
2019-03-17T14:08:13.432Z,0.70
2019-03-17T14:13:16.995Z,0.73
2019-03-17T14:18:20.585Z,1.00
2019-03-17T14:23:24.104Z,0.90
2019-03-17T14:28:27.634Z,1.00
2019-03-17T14:33:31.314Z,1.10
2019-03-17T14:38:34.945Z,1.20
2019-03-17T14:43:38.501Z,1.60
2019-03-17T14:48:42.198Z,1.93
2019-03-17T14:53:45.959Z,1.87
2019-03-17T14:58:49.605Z,1.53
2019-03-17T15:03:53.229Z,1.80
2019-03-17T15:08:56.865Z,1.00
2019-03-17T15:14:00.399Z,1.23
2019-03-17T15:19:03.920Z,1.00
2019-03-17T15:24:07.532Z,1.23
2019-03-17T15:29:11.269Z,1.70
2019-03-17T15:34:14.824Z,2.30
2019-03-17T15:39:18.370Z,0.93
2019-03-17T15:44:22.002Z,2.30
2019-03-17T15:49:25.676Z,1.40
2019-03-17T15:54:31.247Z,2.03
2019-03-17T15:59:34.982Z,1.63
2019-03-17T16:04:38.644Z,2.57
2019-03-17T16:09:42.161Z,1.73
2019-03-17T16:14:45.889Z,1.10
2019-03-17T16:19:49.486Z,0.60
2019-03-17T16:24:53.137Z,0.47
2019-03-17T16:29:56.844Z,0.60
2019-03-17T16:35:00.478Z,0.20
2019-03-17T16:40:04.196Z,0.93
2019-03-17T16:45:08.023Z,1.33
2019-03-17T16:50:12.891Z,0.63
2019-03-17T16:55:16.494Z,0.80
2019-03-17T17:00:20.202Z,0.83
2019-03-17T17:05:23.845Z,0.50
2019-03-17T17:10:27.443Z,0.40
2019-03-17T17:15:31.078Z,0.30
2019-03-17T17:20:34.738Z,0.10
2019-03-17T17:25:38.289Z,0.50
2019-03-17T17:30:42.007Z,0.20
2019-03-17T17:35:45.514Z,0.73
2019-03-17T17:40:49.194Z,0.30
2019-03-17T17:45:52.817Z,0.20
2019-03-17T17:50:56.565Z,0.60
2019-03-17T17:56:00.097Z,0.30
2019-03-17T18:01:03.704Z,0.40
2019-03-17T18:06:07.413Z,2.30
2019-03-17T18:11:11.027Z,1.57
2019-03-17T18:16:14.676Z,0.50
2019-03-17T18:21:18.201Z,0.50
2019-03-17T18:26:21.743Z,2.47
2019-03-17T18:31:25.444Z,0.97
2019-03-17T18:36:29.004Z,0.50
2019-03-17T18:41:32.624Z,1.00
2019-03-17T18:46:36.160Z,0.67
2019-03-17T18:51:40.789Z,0.53
2019-03-17T18:56:44.370Z,0.30
2019-03-17T19:01:48.053Z,0.40
2019-03-17T19:06:51.598Z,0.20
2019-03-17T19:11:55.122Z,0.63
2019-03-17T19:16:58.716Z,0.50
2019-03-17T19:22:02.222Z,0.63
2019-03-17T19:27:07.702Z,0.60
2019-03-17T19:32:11.339Z,0.63
2019-03-17T19:37:15.317Z,0.50
2019-03-17T19:42:19.072Z,0.30
2019-03-17T19:47:23.868Z,0.63
2019-03-17T19:52:27.972Z,0.30
2019-03-17T19:57:31.885Z,0.73
2019-03-17T20:02:36.741Z,0.80
2019-03-17T20:07:40.339Z,0.60
2019-03-17T20:12:44.212Z,0.70
2019-03-17T20:17:47.771Z,0.43
2019-03-17T20:22:51.600Z,0.93
2019-03-17T20:27:55.355Z,0.60
2019-03-17T20:32:58.996Z,0.98
2019-03-17T20:38:02.957Z,0.87
2019-03-17T20:43:18.554Z,0.40
2019-03-17T20:48:10.333Z,0.83
2019-03-17T20:53:14.212Z,0.90
2019-03-17T20:58:17.726Z,0.87
2019-03-17T21:03:21.283Z,1.33
2019-03-17T21:08:24.994Z,0.77
2019-03-17T21:13:28.633Z,0.90
2019-03-17T21:18:32.891Z,3.57
2019-03-17T21:23:36.853Z,1.33
2019-03-17T21:28:40.744Z,1.50
2019-03-17T21:33:45.340Z,1.00
2019-03-17T21:38:48.846Z,0.80
2019-03-17T21:43:59.307Z,0.63
2019-03-17T21:48:56.207Z,0.93
2019-03-17T21:54:00.342Z,0.67
2019-03-17T21:59:04.275Z,0.50
2019-03-17T22:04:08.103Z,1.27
2019-03-17T22:09:11.719Z,1.03
2019-03-17T22:14:15.999Z,0.70
2019-03-17T22:19:19.692Z,0.80
2019-03-17T22:24:23.615Z,0.90
2019-03-17T22:29:27.074Z,0.80
2019-03-17T22:34:31.354Z,0.83
2019-03-17T22:39:35.184Z,1.13
2019-03-17T22:44:39.647Z,0.70
2019-03-17T22:49:43.303Z,0.93
2019-03-17T22:54:46.761Z,1.03
2019-03-17T22:59:50.503Z,1.22
2019-03-17T23:04:53.955Z,1.30
2019-03-17T23:09:57.416Z,0.43
2019-03-17T23:15:01.137Z,1.07
2019-03-17T23:20:05.088Z,1.23
2019-03-17T23:25:08.745Z,0.43
2019-03-17T23:30:12.325Z,1.17
2019-03-17T23:35:15.794Z,1.07
2019-03-17T23:40:19.227Z,1.67
2019-03-17T23:45:22.719Z,0.93
2019-03-17T23:50:26.160Z,1.23
2019-03-17T23:55:29.640Z,0.90
